sensor_id;sensor_type;location;lat;lon;timestamp;pressure;altitude;pressure_sealevel;temperature;humidity
141;BME280;65;48.778;9.160;2023-04-07T00:00:48;98558.78;;;6.03;100.00
141;BME280;65;48.778;9.160;2023-04-07T00:03:34;98553.59;;;6.02;100.00
141;BME280;65;48.778;9.160;2023-04-07T00:06:20;98554.56;;;5.99;100.00
141;BME280;65;48.778;9.160;2023-04-07T00:09:06;98556.97;;;6.06;100.00
141;BME280;65;48.778;9.160;2023-04-07T00:11:51;98551.66;;;6.07;100.00
141;BME280;65;48.778;9.160;2023-04-07T00:14:37;98549.44;;;6.18;100.00
141;BME280;65;48.778;9.160;2023-04-07T00:17:23;98539.94;;;6.16;100.00
141;BME280;65;48.778;9.160;2023-04-07T00:20:09;98541.81;;;6.12;100.00
141;BME280;65;48.778;9.160;2023-04-07T00:22:55;98539.03;;;6.17;100.00
141;BME280;65;48.778;9.160;2023-04-07T00:25:40;98535.59;;;6.15;100.00
141;BME280;65;48.778;9.160;2023-04-07T00:28:49;98524.25;;;6.14;100.00
141;BME280;65;48.778;9.160;2023-04-07T00:31:35;98530.28;;;6.16;100.00
141;BME280;65;48.778;9.160;2023-04-07T00:34:20;98523.34;;;6.15;100.00
141;BME280;65;48.778;9.160;2023-04-07T00:37:06;98520.78;;;6.14;100.00
141;BME280;65;48.778;9.160;2023-04-07T00:39:52;98509.50;;;6.12;100.00
141;BME280;65;48.778;9.160;2023-04-07T00:42:37;98512.72;;;6.18;100.00
141;BME280;65;48.778;9.160;2023-04-07T00:45:23;98510.69;;;6.25;100.00
141;BME280;65;48.778;9.160;2023-04-07T00:48:09;98510.81;;;6.22;100.00
141;BME280;65;48.778;9.160;2023-04-07T00:50:55;98504.91;;;6.17;100.00
141;BME280;65;48.778;9.160;2023-04-07T00:53:40;98510.53;;;6.08;100.00
141;BME280;65;48.778;9.160;2023-04-07T00:56:27;98501.88;;;6.06;100.00
141;BME280;65;48.778;9.160;2023-04-07T00:59:14;98496.75;;;6.02;100.00
141;BME280;65;48.778;9.160;2023-04-07T01:02:16;98492.94;;;6.10;100.00
141;BME280;65;48.778;9.160;2023-04-07T01:08:01;98483.69;;;6.01;100.00
141;BME280;65;48.778;9.160;2023-04-07T01:10:53;98483.88;;;5.96;100.00
141;BME280;65;48.778;9.160;2023-04-07T01:13:49;98477.72;;;5.97;100.00
141;BME280;65;48.778;9.160;2023-04-07T01:16:46;98470.56;;;6.01;100.00
141;BME280;65;48.778;9.160;2023-04-07T01:19:36;98473.25;;;5.99;100.00
141;BME280;65;48.778;9.160;2023-04-07T01:22:52;98469.03;;;5.95;100.00
141;BME280;65;48.778;9.160;2023-04-07T01:29:29;98459.69;;;5.88;100.00
141;BME280;65;48.778;9.160;2023-04-07T01:32:18;98463.88;;;5.94;100.00
141;BME280;65;48.778;9.160;2023-04-07T01:35:11;98456.72;;;5.97;100.00
141;BME280;65;48.778;9.160;2023-04-07T01:37:58;98456.72;;;5.97;100.00
141;BME280;65;48.778;9.160;2023-04-07T01:40:45;98450.50;;;6.00;100.00
141;BME280;65;48.778;9.160;2023-04-07T01:43:32;98454.28;;;5.93;100.00
141;BME280;65;48.778;9.160;2023-04-07T01:46:19;98457.03;;;5.90;100.00
141;BME280;65;48.778;9.160;2023-04-07T01:49:06;98448.31;;;5.89;100.00
141;BME280;65;48.778;9.160;2023-04-07T01:51:53;98445.38;;;5.97;100.00
141;BME280;65;48.778;9.160;2023-04-07T01:54:39;98434.63;;;6.03;100.00
141;BME280;65;48.778;9.160;2023-04-07T01:57:25;98435.59;;;6.00;100.00
141;BME280;65;48.778;9.160;2023-04-07T02:00:12;98434.16;;;5.93;100.00
141;BME280;65;48.778;9.160;2023-04-07T02:03:14;98440.97;;;5.97;100.00
141;BME280;65;48.778;9.160;2023-04-07T02:06:06;98440.13;;;5.97;100.00
141;BME280;65;48.778;9.160;2023-04-07T02:08:56;98438.28;;;5.99;100.00
141;BME280;65;48.778;9.160;2023-04-07T02:11:44;98430.09;;;6.07;100.00
141;BME280;65;48.778;9.160;2023-04-07T02:14:30;98425.00;;;6.03;100.00
141;BME280;65;48.778;9.160;2023-04-07T02:17:17;98426.75;;;6.03;100.00
141;BME280;65;48.778;9.160;2023-04-07T02:20:05;98427.56;;;6.05;100.00
141;BME280;65;48.778;9.160;2023-04-07T02:22:52;98424.00;;;6.06;100.00
141;BME280;65;48.778;9.160;2023-04-07T02:25:40;98420.47;;;6.07;100.00
141;BME280;65;48.778;9.160;2023-04-07T02:28:26;98421.31;;;6.08;100.00
141;BME280;65;48.778;9.160;2023-04-07T02:31:11;98426.44;;;6.11;100.00
141;BME280;65;48.778;9.160;2023-04-07T02:33:58;98413.13;;;6.15;100.00
141;BME280;65;48.778;9.160;2023-04-07T02:36:43;98409.06;;;6.08;100.00
141;BME280;65;48.778;9.160;2023-04-07T02:39:29;98413.31;;;6.11;100.00
141;BME280;65;48.778;9.160;2023-04-07T02:42:15;98409.78;;;6.12;100.00
141;BME280;65;48.778;9.160;2023-04-07T02:45:01;98402.50;;;6.18;100.00
141;BME280;65;48.778;9.160;2023-04-07T02:47:47;98400.66;;;6.20;100.00
141;BME280;65;48.778;9.160;2023-04-07T02:50:33;98401.78;;;6.15;100.00
141;BME280;65;48.778;9.160;2023-04-07T02:53:18;98400.66;;;6.20;100.00
141;BME280;65;48.778;9.160;2023-04-07T02:56:04;98389.31;;;6.20;100.00
141;BME280;65;48.778;9.160;2023-04-07T02:58:50;98394.63;;;6.18;100.00
141;BME280;65;48.778;9.160;2023-04-07T03:01:36;98391.88;;;6.21;100.00
141;BME280;65;48.778;9.160;2023-04-07T03:04:23;98391.75;;;6.24;100.00
141;BME280;65;48.778;9.160;2023-04-07T03:07:09;98385.78;;;6.21;100.00
141;BME280;65;48.778;9.160;2023-04-07T03:09:54;98390.97;;;6.22;100.00
141;BME280;65;48.778;9.160;2023-04-07T03:12:40;98389.78;;;6.29;100.00
141;BME280;65;48.778;9.160;2023-04-07T03:15:26;98385.44;;;6.28;100.00
141;BME280;65;48.778;9.160;2023-04-07T03:18:11;98386.16;;;6.32;100.00
141;BME280;65;48.778;9.160;2023-04-07T03:20:57;98378.28;;;6.32;100.00
141;BME280;65;48.778;9.160;2023-04-07T03:23:44;98373.03;;;6.32;100.00
141;BME280;65;48.778;9.160;2023-04-07T03:30:12;98375.44;;;6.38;100.00
141;BME280;65;48.778;9.160;2023-04-07T03:32:58;98371.03;;;6.39;100.00
141;BME280;65;48.778;9.160;2023-04-07T03:35:43;98369.56;;;6.31;100.00
141;BME280;65;48.778;9.160;2023-04-07T03:38:29;98360.91;;;6.29;100.00
141;BME280;65;48.778;9.160;2023-04-07T03:41:15;98367.84;;;6.30;100.00
141;BME280;65;48.778;9.160;2023-04-07T03:44:01;98364.78;;;6.21;100.00
141;BME280;65;48.778;9.160;2023-04-07T03:46:46;98370.03;;;6.21;100.00
141;BME280;65;48.778;9.160;2023-04-07T03:49:34;98364.13;;;6.16;100.00
141;BME280;65;48.778;9.160;2023-04-07T03:52:22;98356.06;;;6.20;100.00
141;BME280;65;48.778;9.160;2023-04-07T03:55:08;98355.28;;;6.18;100.00
141;BME280;65;48.778;9.160;2023-04-07T03:57:54;98355.19;;;6.20;100.00
141;BME280;65;48.778;9.160;2023-04-07T04:00:40;98356.84;;;6.22;100.00
141;BME280;65;48.778;9.160;2023-04-07T04:03:26;98356.00;;;6.22;100.00
141;BME280;65;48.778;9.160;2023-04-07T04:06:11;98353.44;;;6.20;100.00
141;BME280;65;48.778;9.160;2023-04-07T04:08:57;98351.25;;;6.30;100.00
141;BME280;65;48.778;9.160;2023-04-07T04:11:43;98348.91;;;6.24;100.00
141;BME280;65;48.778;9.160;2023-04-07T04:14:28;98358.00;;;6.35;100.00
141;BME280;65;48.778;9.160;2023-04-07T04:17:14;98352.75;;;6.35;100.00
141;BME280;65;48.778;9.160;2023-04-07T04:20:00;98353.91;;;6.50;100.00
141;BME280;65;48.778;9.160;2023-04-07T04:22:46;98345.75;;;6.56;100.00
141;BME280;65;48.778;9.160;2023-04-07T04:25:34;98347.72;;;6.51;100.00
141;BME280;65;48.778;9.160;2023-04-07T04:28:20;98342.75;;;6.45;100.00
141;BME280;65;48.778;9.160;2023-04-07T04:31:06;98337.91;;;6.36;100.00
141;BME280;65;48.778;9.160;2023-04-07T04:33:52;98333.94;;;6.46;100.00
141;BME280;65;48.778;9.160;2023-04-07T04:36:38;98342.06;;;6.60;100.00
141;BME280;65;48.778;9.160;2023-04-07T04:39:25;98336.63;;;6.45;100.00
141;BME280;65;48.778;9.160;2023-04-07T04:42:11;98336.84;;;6.40;100.00
141;BME280;65;48.778;9.160;2023-04-07T04:44:56;98344.00;;;6.37;100.00
141;BME280;65;48.778;9.160;2023-04-07T04:47:42;98341.53;;;6.32;100.00
141;BME280;65;48.778;9.160;2023-04-07T04:50:28;98336.50;;;6.27;100.00
141;BME280;65;48.778;9.160;2023-04-07T04:53:14;98338.22;;;6.28;100.00
141;BME280;65;48.778;9.160;2023-04-07T04:55:59;98341.09;;;6.22;100.00
141;BME280;65;48.778;9.160;2023-04-07T04:58:45;98337.50;;;6.25;100.00
141;BME280;65;48.778;9.160;2023-04-07T05:01:31;98344.44;;;6.26;100.00
141;BME280;65;48.778;9.160;2023-04-07T05:04:17;98343.31;;;6.31;100.00
141;BME280;65;48.778;9.160;2023-04-07T05:07:03;98339.06;;;6.29;100.00
141;BME280;65;48.778;9.160;2023-04-07T05:09:48;98345.28;;;6.26;100.00
141;BME280;65;48.778;9.160;2023-04-07T05:12:34;98349.41;;;6.32;100.00
141;BME280;65;48.778;9.160;2023-04-07T05:15:20;98345.81;;;6.34;100.00
141;BME280;65;48.778;9.160;2023-04-07T05:18:06;98349.19;;;6.38;100.00
141;BME280;65;48.778;9.160;2023-04-07T05:20:52;98349.03;;;6.41;100.00
141;BME280;65;48.778;9.160;2023-04-07T05:23:38;98350.63;;;6.45;100.00
141;BME280;65;48.778;9.160;2023-04-07T05:26:24;98353.69;;;6.55;100.00
141;BME280;65;48.778;9.160;2023-04-07T05:29:10;98351.22;;;6.71;100.00
141;BME280;65;48.778;9.160;2023-04-07T05:31:56;98348.88;;;6.83;100.00
141;BME280;65;48.778;9.160;2023-04-07T05:34:42;98344.50;;;6.84;100.00
141;BME280;65;48.778;9.160;2023-04-07T05:37:28;98349.66;;;6.85;100.00
141;BME280;65;48.778;9.160;2023-04-07T05:40:13;98347.13;;;6.84;100.00
141;BME280;65;48.778;9.160;2023-04-07T05:42:59;98346.91;;;6.88;100.00
141;BME280;65;48.778;9.160;2023-04-07T05:45:46;98346.69;;;6.93;100.00
141;BME280;65;48.778;9.160;2023-04-07T05:48:32;98351.47;;;7.04;98.16
141;BME280;65;48.778;9.160;2023-04-07T05:51:17;98350.34;;;7.09;98.25
141;BME280;65;48.778;9.160;2023-04-07T05:54:03;98353.38;;;7.19;98.05
141;BME280;65;48.778;9.160;2023-04-07T05:56:49;98351.94;;;7.30;95.44
141;BME280;65;48.778;9.160;2023-04-07T05:59:35;98352.72;;;7.33;97.87
141;BME280;65;48.778;9.160;2023-04-07T06:02:21;98356.34;;;7.30;98.94
141;BME280;65;48.778;9.160;2023-04-07T06:05:06;98354.94;;;7.23;98.25
141;BME280;65;48.778;9.160;2023-04-07T06:07:52;98353.50;;;7.35;99.99
141;BME280;65;48.778;9.160;2023-04-07T06:10:38;98355.69;;;7.44;99.07
141;BME280;65;48.778;9.160;2023-04-07T06:13:26;98353.59;;;7.52;97.52
141;BME280;65;48.778;9.160;2023-04-07T06:16:12;98360.53;;;7.53;97.07
141;BME280;65;48.778;9.160;2023-04-07T06:18:57;98355.22;;;7.36;96.50
141;BME280;65;48.778;9.160;2023-04-07T06:21:43;98353.69;;;7.49;97.67
141;BME280;65;48.778;9.160;2023-04-07T06:24:29;98361.09;;;7.59;95.46
141;BME280;65;48.778;9.160;2023-04-07T06:27:15;98360.44;;;7.73;94.05
141;BME280;65;48.778;9.160;2023-04-07T06:30:01;98352.13;;;7.64;95.56
141;BME280;65;48.778;9.160;2023-04-07T06:32:47;98350.22;;;7.84;92.60
141;BME280;65;48.778;9.160;2023-04-07T06:35:33;98356.50;;;7.99;93.11
141;BME280;65;48.778;9.160;2023-04-07T06:38:18;98360.97;;;7.97;89.63
141;BME280;65;48.778;9.160;2023-04-07T06:41:04;98357.09;;;7.87;94.79
141;BME280;65;48.778;9.160;2023-04-07T06:43:50;98360.72;;;7.67;92.92
141;BME280;65;48.778;9.160;2023-04-07T06:46:36;98358.28;;;7.81;92.55
141;BME280;65;48.778;9.160;2023-04-07T06:49:22;98358.28;;;7.99;92.39
141;BME280;65;48.778;9.160;2023-04-07T06:52:08;98355.81;;;8.13;91.08
141;BME280;65;48.778;9.160;2023-04-07T06:54:53;98347.91;;;8.30;91.63
141;BME280;65;48.778;9.160;2023-04-07T06:57:39;98347.16;;;8.28;89.95
141;BME280;65;48.778;9.160;2023-04-07T07:00:25;98351.56;;;8.45;88.12
141;BME280;65;48.778;9.160;2023-04-07T07:03:13;98351.84;;;8.56;89.06
141;BME280;65;48.778;9.160;2023-04-07T07:05:59;98342.00;;;8.77;87.40
141;BME280;65;48.778;9.160;2023-04-07T07:08:45;98351.44;;;8.81;86.69
141;BME280;65;48.778;9.160;2023-04-07T07:11:31;98350.53;;;8.98;84.43
141;BME280;65;48.778;9.160;2023-04-07T07:14:16;98347.97;;;9.12;82.36
141;BME280;65;48.778;9.160;2023-04-07T07:17:02;98343.91;;;9.22;81.87
141;BME280;65;48.778;9.160;2023-04-07T07:19:48;98343.59;;;9.28;84.59
141;BME280;65;48.778;9.160;2023-04-07T07:22:34;98345.53;;;9.56;80.84
141;BME280;65;48.778;9.160;2023-04-07T07:25:20;98348.16;;;9.56;79.72
141;BME280;65;48.778;9.160;2023-04-07T07:28:06;98346.09;;;9.14;87.86
141;BME280;65;48.778;9.160;2023-04-07T07:30:52;98345.25;;;9.61;81.20
141;BME280;65;48.778;9.160;2023-04-07T07:33:39;98354.16;;;9.90;81.73
141;BME280;65;48.778;9.160;2023-04-07T07:36:25;98354.47;;;9.99;79.93
141;BME280;65;48.778;9.160;2023-04-07T07:39:11;98351.41;;;10.07;78.77
141;BME280;65;48.778;9.160;2023-04-07T07:41:58;98355.03;;;9.90;82.66
141;BME280;65;48.778;9.160;2023-04-07T07:44:44;98354.34;;;10.17;80.19
141;BME280;65;48.778;9.160;2023-04-07T07:47:30;98354.88;;;10.07;78.79
141;BME280;65;48.778;9.160;2023-04-07T07:50:16;98351.63;;;9.72;81.47
141;BME280;65;48.778;9.160;2023-04-07T07:53:02;98358.25;;;9.95;81.68
141;BME280;65;48.778;9.160;2023-04-07T07:55:47;98359.19;;;9.78;81.76
141;BME280;65;48.778;9.160;2023-04-07T07:58:34;98355.84;;;9.45;84.95
141;BME280;65;48.778;9.160;2023-04-07T08:01:20;98356.66;;;9.61;81.77
141;BME280;65;48.778;9.160;2023-04-07T08:04:05;98359.13;;;9.64;82.18
141;BME280;65;48.778;9.160;2023-04-07T08:06:54;98360.31;;;10.20;80.18
141;BME280;65;48.778;9.160;2023-04-07T08:09:40;98357.22;;;10.58;78.44
141;BME280;65;48.778;9.160;2023-04-07T08:12:26;98355.41;;;10.87;73.55
141;BME280;65;48.778;9.160;2023-04-07T08:15:12;98358.53;;;10.93;72.82
141;BME280;65;48.778;9.160;2023-04-07T08:17:57;98357.16;;;11.02;72.93
141;BME280;65;48.778;9.160;2023-04-07T08:20:45;98364.59;;;10.81;76.07
141;BME280;65;48.778;9.160;2023-04-07T08:23:31;98362.69;;;10.83;73.56
141;BME280;65;48.778;9.160;2023-04-07T08:26:16;98369.47;;;10.59;73.44
141;BME280;65;48.778;9.160;2023-04-07T08:29:02;98373.72;;;10.01;75.37
141;BME280;65;48.778;9.160;2023-04-07T08:31:48;98371.75;;;10.79;74.08
141;BME280;65;48.778;9.160;2023-04-07T08:34:34;98369.28;;;11.33;73.63
141;BME280;65;48.778;9.160;2023-04-07T08:37:19;98375.63;;;11.86;72.87
141;BME280;65;48.778;9.160;2023-04-07T08:40:06;98374.72;;;12.52;69.45
141;BME280;65;48.778;9.160;2023-04-07T08:42:52;98367.72;;;12.51;71.99
141;BME280;65;48.778;9.160;2023-04-07T08:45:39;98365.03;;;13.52;68.68
141;BME280;65;48.778;9.160;2023-04-07T08:48:29;98371.69;;;13.95;65.61
141;BME280;65;48.778;9.160;2023-04-07T08:51:31;98373.22;;;14.91;61.28
141;BME280;65;48.778;9.160;2023-04-07T08:54:17;98355.72;;;15.11;57.02
141;BME280;65;48.778;9.160;2023-04-07T08:57:03;98359.06;;;14.91;60.90
141;BME280;65;48.778;9.160;2023-04-07T08:59:50;98361.19;;;15.97;53.83
141;BME280;65;48.778;9.160;2023-04-07T09:02:40;98370.97;;;15.31;56.84
141;BME280;65;48.778;9.160;2023-04-07T09:05:29;98368.56;;;15.62;55.12
141;BME280;65;48.778;9.160;2023-04-07T09:08:15;98372.16;;;15.72;56.63
141;BME280;65;48.778;9.160;2023-04-07T09:11:01;98371.41;;;15.47;55.20
141;BME280;65;48.778;9.160;2023-04-07T09:13:48;98375.63;;;14.72;56.70
141;BME280;65;48.778;9.160;2023-04-07T09:16:34;98370.97;;;15.20;54.48
141;BME280;65;48.778;9.160;2023-04-07T09:19:20;98375.44;;;15.31;53.12
141;BME280;65;48.778;9.160;2023-04-07T09:25:21;98366.53;;;14.63;59.13
141;BME280;65;48.778;9.160;2023-04-07T09:28:08;98368.13;;;14.42;57.86
141;BME280;65;48.778;9.160;2023-04-07T09:30:54;98365.66;;;14.51;56.05
141;BME280;65;48.778;9.160;2023-04-07T09:33:40;98358.81;;;14.71;56.21
141;BME280;65;48.778;9.160;2023-04-07T09:36:28;98365.19;;;14.34;56.93
141;BME280;65;48.778;9.160;2023-04-07T09:39:26;98366.69;;;14.84;54.38
141;BME280;65;48.778;9.160;2023-04-07T09:42:12;98360.53;;;14.95;56.52
141;BME280;65;48.778;9.160;2023-04-07T09:44:58;98359.19;;;14.89;55.76
141;BME280;65;48.778;9.160;2023-04-07T09:47:44;98368.13;;;14.07;58.73
141;BME280;65;48.778;9.160;2023-04-07T09:53:19;98363.94;;;13.68;60.46
141;BME280;65;48.778;9.160;2023-04-07T09:56:06;98360.84;;;13.12;61.96
141;BME280;65;48.778;9.160;2023-04-07T09:58:53;98369.13;;;13.33;61.37
141;BME280;65;48.778;9.160;2023-04-07T10:01:39;98359.88;;;13.13;62.26
141;BME280;65;48.778;9.160;2023-04-07T10:04:26;98367.03;;;12.74;64.76
141;BME280;65;48.778;9.160;2023-04-07T10:07:12;98366.75;;;12.39;65.54
141;BME280;65;48.778;9.160;2023-04-07T10:09:58;98372.06;;;12.26;67.40
141;BME280;65;48.778;9.160;2023-04-07T10:12:44;98367.31;;;12.04;65.82
141;BME280;65;48.778;9.160;2023-04-07T10:15:30;98365.59;;;12.03;68.82
141;BME280;65;48.778;9.160;2023-04-07T10:18:16;98360.06;;;11.94;68.19
141;BME280;65;48.778;9.160;2023-04-07T10:21:06;98362.38;;;11.86;69.38
141;BME280;65;48.778;9.160;2023-04-07T10:23:59;98364.13;;;12.52;65.88
141;BME280;65;48.778;9.160;2023-04-07T10:26:54;98364.38;;;12.74;65.35
141;BME280;65;48.778;9.160;2023-04-07T10:29:42;98359.72;;;12.78;66.36
141;BME280;65;48.778;9.160;2023-04-07T10:32:29;98368.91;;;12.59;65.25
141;BME280;65;48.778;9.160;2023-04-07T10:35:15;98361.38;;;12.41;64.15
141;BME280;65;48.778;9.160;2023-04-07T10:40:54;98372.09;;;12.64;62.97
141;BME280;65;48.778;9.160;2023-04-07T10:43:45;98371.44;;;12.61;65.53
141;BME280;65;48.778;9.160;2023-04-07T10:49:29;98359.81;;;12.76;65.74
141;BME280;65;48.778;9.160;2023-04-07T10:52:22;98362.31;;;13.41;62.70
141;BME280;65;48.778;9.160;2023-04-07T10:55:35;98366.22;;;13.48;60.55
141;BME280;65;48.778;9.160;2023-04-07T10:58:31;98362.53;;;13.38;61.79
141;BME280;65;48.778;9.160;2023-04-07T11:01:18;98365.41;;;13.35;62.43
141;BME280;65;48.778;9.160;2023-04-07T11:04:36;98371.69;;;12.83;64.52
141;BME280;65;48.778;9.160;2023-04-07T11:07:42;98371.03;;;13.67;60.74
141;BME280;65;48.778;9.160;2023-04-07T11:10:28;98365.81;;;14.02;57.33
141;BME280;65;48.778;9.160;2023-04-07T11:13:14;98366.41;;;13.82;59.79
141;BME280;65;48.778;9.160;2023-04-07T11:16:00;98368.44;;;13.78;62.06
141;BME280;65;48.778;9.160;2023-04-07T11:18:46;98367.44;;;13.68;62.41
141;BME280;65;48.778;9.160;2023-04-07T11:21:35;98372.00;;;13.04;70.02
141;BME280;65;48.778;9.160;2023-04-07T11:24:31;98373.44;;;12.45;79.11
141;BME280;65;48.778;9.160;2023-04-07T11:27:17;98383.66;;;11.29;88.66
141;BME280;65;48.778;9.160;2023-04-07T11:30:07;98373.72;;;10.47;91.84
141;BME280;65;48.778;9.160;2023-04-07T11:32:55;98383.47;;;10.31;100.00
141;BME280;65;48.778;9.160;2023-04-07T11:35:58;98387.53;;;10.36;100.00
141;BME280;65;48.778;9.160;2023-04-07T11:38:43;98390.63;;;10.59;100.00
141;BME280;65;48.778;9.160;2023-04-07T11:41:32;98383.09;;;10.95;100.00
141;BME280;65;48.778;9.160;2023-04-07T11:44:18;98386.69;;;11.08;100.00
141;BME280;65;48.778;9.160;2023-04-07T11:47:03;98387.28;;;10.99;100.00
141;BME280;65;48.778;9.160;2023-04-07T11:49:50;98404.50;;;10.62;100.00
141;BME280;65;48.778;9.160;2023-04-07T11:52:47;98411.06;;;10.41;100.00
141;BME280;65;48.778;9.160;2023-04-07T11:55:33;98418.75;;;10.14;100.00
141;BME280;65;48.778;9.160;2023-04-07T11:58:37;98422.13;;;9.70;100.00
141;BME280;65;48.778;9.160;2023-04-07T12:01:38;98433.34;;;9.42;100.00
141;BME280;65;48.778;9.160;2023-04-07T12:04:23;98428.38;;;9.20;100.00
141;BME280;65;48.778;9.160;2023-04-07T12:07:10;98438.13;;;9.03;100.00
141;BME280;65;48.778;9.160;2023-04-07T12:09:56;98441.81;;;8.83;100.00
141;BME280;65;48.778;9.160;2023-04-07T12:12:44;98435.31;;;8.73;100.00
141;BME280;65;48.778;9.160;2023-04-07T12:15:30;98447.88;;;8.68;100.00
141;BME280;65;48.778;9.160;2023-04-07T12:18:16;98450.25;;;8.72;100.00
141;BME280;65;48.778;9.160;2023-04-07T12:21:03;98437.34;;;8.68;100.00
141;BME280;65;48.778;9.160;2023-04-07T12:23:49;98449.16;;;8.59;100.00
141;BME280;65;48.778;9.160;2023-04-07T12:26:36;98444.13;;;8.54;100.00
141;BME280;65;48.778;9.160;2023-04-07T12:29:21;98441.97;;;8.80;100.00
141;BME280;65;48.778;9.160;2023-04-07T12:32:07;98443.34;;;8.87;100.00
141;BME280;65;48.778;9.160;2023-04-07T12:34:53;98440.06;;;8.99;100.00
141;BME280;65;48.778;9.160;2023-04-07T12:37:39;98438.84;;;8.89;100.00
141;BME280;65;48.778;9.160;2023-04-07T12:40:24;98444.03;;;8.91;100.00
141;BME280;65;48.778;9.160;2023-04-07T12:43:10;98444.88;;;8.91;100.00
141;BME280;65;48.778;9.160;2023-04-07T12:45:56;98439.97;;;9.01;100.00
141;BME280;65;48.778;9.160;2023-04-07T12:48:43;98437.00;;;9.07;100.00
141;BME280;65;48.778;9.160;2023-04-07T12:51:29;98438.81;;;9.06;100.00
141;BME280;65;48.778;9.160;2023-04-07T12:54:17;98433.13;;;9.14;100.00
141;BME280;65;48.778;9.160;2023-04-07T12:57:03;98423.00;;;9.22;100.00
141;BME280;65;48.778;9.160;2023-04-07T12:59:49;98426.13;;;9.30;100.00
141;BME280;65;48.778;9.160;2023-04-07T13:02:35;98428.50;;;9.35;100.00
141;BME280;65;48.778;9.160;2023-04-07T13:05:23;98419.97;;;9.30;100.00
141;BME280;65;48.778;9.160;2023-04-07T13:08:09;98423.47;;;9.46;100.00
141;BME280;65;48.778;9.160;2023-04-07T13:10:55;98419.47;;;9.39;100.00
141;BME280;65;48.778;9.160;2023-04-07T13:13:41;98419.47;;;9.39;100.00
141;BME280;65;48.778;9.160;2023-04-07T13:16:27;98421.28;;;9.54;100.00
141;BME280;65;48.778;9.160;2023-04-07T13:19:13;98419.75;;;9.66;100.00
141;BME280;65;48.778;9.160;2023-04-07T13:21:59;98424.06;;;9.67;100.00
141;BME280;65;48.778;9.160;2023-04-07T13:24:45;98432.69;;;9.70;100.00
141;BME280;65;48.778;9.160;2023-04-07T13:27:30;98432.59;;;9.56;100.00
141;BME280;65;48.778;9.160;2023-04-07T13:30:16;98433.34;;;9.58;100.00
141;BME280;65;48.778;9.160;2023-04-07T13:33:02;98432.84;;;9.67;100.00
141;BME280;65;48.778;9.160;2023-04-07T13:35:47;98432.25;;;9.78;100.00
141;BME280;65;48.778;9.160;2023-04-07T13:38:33;98426.97;;;9.78;100.00
141;BME280;65;48.778;9.160;2023-04-07T13:41:19;98426.13;;;9.93;100.00
141;BME280;65;48.778;9.160;2023-04-07T13:44:05;98420.72;;;10.10;100.00
141;BME280;65;48.778;9.160;2023-04-07T13:46:52;98419.13;;;10.08;100.00
141;BME280;65;48.778;9.160;2023-04-07T13:49:38;98422.06;;;10.18;100.00
141;BME280;65;48.778;9.160;2023-04-07T13:52:23;98419.00;;;10.25;100.00
141;BME280;65;48.778;9.160;2023-04-07T13:55:09;98418.75;;;10.14;100.00
141;BME280;65;48.778;9.160;2023-04-07T13:57:55;98418.84;;;10.28;100.00
141;BME280;65;48.778;9.160;2023-04-07T14:00:41;98418.72;;;10.45;100.00
141;BME280;65;48.778;9.160;2023-04-07T14:03:26;98419.41;;;10.33;100.00
141;BME280;65;48.778;9.160;2023-04-07T14:06:12;98413.16;;;10.50;100.00
141;BME280;65;48.778;9.160;2023-04-07T14:08:58;98414.72;;;10.68;100.00
141;BME280;65;48.778;9.160;2023-04-07T14:11:44;98420.84;;;10.83;100.00
141;BME280;65;48.778;9.160;2023-04-07T14:14:29;98417.00;;;10.89;100.00
141;BME280;65;48.778;9.160;2023-04-07T14:17:15;98417.31;;;10.98;100.00
141;BME280;65;48.778;9.160;2023-04-07T14:20:01;98421.44;;;10.88;100.00
141;BME280;65;48.778;9.160;2023-04-07T14:22:46;98415.66;;;10.82;100.00
141;BME280;65;48.778;9.160;2023-04-07T14:25:32;98407.31;;;11.03;100.00
141;BME280;65;48.778;9.160;2023-04-07T14:28:18;98412.66;;;10.88;100.00
141;BME280;65;48.778;9.160;2023-04-07T14:31:04;98413.34;;;11.05;98.22
141;BME280;65;48.778;9.160;2023-04-07T14:33:50;98422.00;;;10.93;100.00
141;BME280;65;48.778;9.160;2023-04-07T14:36:36;98412.75;;;10.86;100.00
141;BME280;65;48.778;9.160;2023-04-07T14:39:22;98408.31;;;10.87;100.00
141;BME280;65;48.778;9.160;2023-04-07T14:42:36;98417.56;;;10.80;100.00
141;BME280;65;48.778;9.160;2023-04-07T14:45:22;98414.63;;;10.84;100.00
141;BME280;65;48.778;9.160;2023-04-07T14:48:08;98416.50;;;10.82;100.00
141;BME280;65;48.778;9.160;2023-04-07T14:50:53;98414.03;;;10.65;100.00
141;BME280;65;48.778;9.160;2023-04-07T14:53:42;98413.75;;;10.69;100.00
141;BME280;65;48.778;9.160;2023-04-07T14:56:30;98417.44;;;10.67;100.00
141;BME280;65;48.778;9.160;2023-04-07T14:59:15;98426.13;;;10.39;100.00
141;BME280;65;48.778;9.160;2023-04-07T15:02:01;98418.75;;;10.30;100.00
141;BME280;65;48.778;9.160;2023-04-07T15:04:49;98427.91;;;10.38;100.00
141;BME280;65;48.778;9.160;2023-04-07T15:07:35;98423.00;;;10.32;100.00
141;BME280;65;48.778;9.160;2023-04-07T15:10:21;98424.88;;;10.46;100.00
141;BME280;65;48.778;9.160;2023-04-07T15:13:07;98422.34;;;10.59;100.00
141;BME280;65;48.778;9.160;2023-04-07T15:15:53;98422.44;;;10.57;100.00
141;BME280;65;48.778;9.160;2023-04-07T15:18:40;98419.16;;;10.68;100.00
141;BME280;65;48.778;9.160;2023-04-07T15:21:26;98424.72;;;10.63;100.00
141;BME280;65;48.778;9.160;2023-04-07T15:24:12;98428.41;;;10.75;100.00
141;BME280;65;48.778;9.160;2023-04-07T15:26:58;98427.84;;;10.84;100.00
141;BME280;65;48.778;9.160;2023-04-07T15:29:44;98427.66;;;10.87;96.37
141;BME280;65;48.778;9.160;2023-04-07T15:32:30;98422.59;;;10.98;98.25
141;BME280;65;48.778;9.160;2023-04-07T15:35:16;98415.50;;;11.13;97.16
141;BME280;65;48.778;9.160;2023-04-07T15:38:01;98427.88;;;11.13;97.54
141;BME280;65;48.778;9.160;2023-04-07T15:40:47;98426.94;;;11.28;95.78
141;BME280;65;48.778;9.160;2023-04-07T15:43:34;98431.28;;;11.57;95.18
141;BME280;65;48.778;9.160;2023-04-07T15:46:21;98435.59;;;11.72;90.87
141;BME280;65;48.778;9.160;2023-04-07T15:49:07;98435.19;;;11.93;91.48
141;BME280;65;48.778;9.160;2023-04-07T15:51:52;98437.34;;;12.00;88.55
141;BME280;65;48.778;9.160;2023-04-07T15:54:38;98440.97;;;12.12;91.64
141;BME280;65;48.778;9.160;2023-04-07T15:57:24;98436.09;;;12.06;83.67
141;BME280;65;48.778;9.160;2023-04-07T16:00:10;98444.31;;;12.16;85.60
141;BME280;65;48.778;9.160;2023-04-07T16:02:56;98441.56;;;12.17;87.42
141;BME280;65;48.778;9.160;2023-04-07T16:05:41;98444.88;;;12.33;85.75
141;BME280;65;48.778;9.160;2023-04-07T16:08:27;98448.41;;;12.47;82.50
141;BME280;65;48.778;9.160;2023-04-07T16:11:13;98442.78;;;12.39;85.13